Time;durP1;ratioP1;P1;durP2;ratioP2;P2;SDS_P1;SDS_P2;PMS_P1;PMS_P2;Temp;Humidity;BMP_temperature;BMP_pressure;BME280_temperature;BME280_humidity;BME280_pressure;Samples;Min_cycle;Max_cycle;Signal;HPM_P1;HPM_P2
2024/01/28 00:01:53;;;;;;;20.27;9.32;;;;;;;;;;5054114;28;20017;-82
2024/01/28 00:04:19;;;;;;;33.00;11.98;;;;;;;;;;5052487;28;20049;-83
2024/01/28 00:06:45;;;;;;;22.50;9.98;;;;;;;;;;5054425;28;20534;-84
2024/01/28 00:09:11;;;;;;;20.95;9.10;;;;;;;;;;5052101;28;20033;-84
2024/01/28 00:11:39;;;;;;;22.88;10.40;;;;;;;;;;5052406;28;20041;-84
2024/01/28 00:14:05;;;;;;;30.83;10.63;;;;;;;;;;5052548;28;20530;-85
2024/01/28 00:16:31;;;;;;;26.23;11.95;;;;;;;;;;5052732;28;20035;-83
2024/01/28 00:19:00;;;;;;;22.27;11.20;;;;;;;;;;5052421;28;20111;-82
2024/01/28 00:21:26;;;;;;;28.85;11.98;;;;;;;;;;5052148;28;20037;-82
2024/01/28 00:23:52;;;;;;;27.27;12.55;;;;;;;;;;5052619;28;20028;-82
2024/01/28 00:26:18;;;;;;;24.85;11.45;;;;;;;;;;5052555;28;20028;-82
2024/01/28 00:28:44;;;;;;;34.42;12.98;;;;;;;;;;5053021;28;20029;-84
2024/01/28 00:31:11;;;;;;;25.02;11.10;;;;;;;;;;5052305;28;20029;-84
2024/01/28 00:33:37;;;;;;;26.98;12.63;;;;;;;;;;5052591;28;20379;-83
2024/01/28 00:36:03;;;;;;;24.88;11.35;;;;;;;;;;5052743;28;20048;-82
2024/01/28 00:38:31;;;;;;;20.52;9.20;;;;;;;;;;5054067;28;20052;-82
2024/01/28 00:41:01;;;;;;;25.15;11.15;;;;;;;;;;5056726;28;20028;-84
2024/01/28 00:43:27;;;;;;;25.30;13.15;;;;;;;;;;5075880;28;20021;-82
2024/01/28 00:45:54;;;;;;;26.48;11.40;;;;;;;;;;5077541;28;20025;-81
2024/01/28 00:48:20;;;;;;;28.05;12.30;;;;;;;;;;5075699;28;20029;-84
2024/01/28 00:50:46;;;;;;;25.80;9.00;;;;;;;;;;5082324;28;20036;-84
2024/01/28 00:53:13;;;;;;;27.42;10.55;;;;;;;;;;5075493;28;20033;-84
2024/01/28 00:55:39;;;;;;;26.60;11.63;;;;;;;;;;5072034;28;20024;-84
2024/01/28 00:58:05;;;;;;;23.88;10.65;;;;;;;;;;5072070;28;20023;-83
2024/01/28 01:00:31;;;;;;;27.38;11.13;;;;;;;;;;5072444;28;20420;-84
2024/01/28 01:02:57;;;;;;;24.90;10.80;;;;;;;;;;5073627;28;20442;-85
2024/01/28 01:05:23;;;;;;;25.90;11.73;;;;;;;;;;5072466;28;20025;-82
2024/01/28 01:07:49;;;;;;;27.15;11.55;;;;;;;;;;5075777;28;20033;-84
2024/01/28 01:10:15;;;;;;;26.48;11.57;;;;;;;;;;5071543;28;20051;-82
2024/01/28 01:12:41;;;;;;;25.55;11.30;;;;;;;;;;5071557;28;20028;-84
2024/01/28 01:15:07;;;;;;;24.98;11.13;;;;;;;;;;5071250;28;20020;-81
2024/01/28 01:17:33;;;;;;;31.88;11.65;;;;;;;;;;5071732;28;20111;-83
2024/01/28 01:20:00;;;;;;;25.88;10.82;;;;;;;;;;5071393;28;20021;-85
2024/01/28 01:22:26;;;;;;;22.23;8.27;;;;;;;;;;5071358;28;20048;-84
2024/01/28 01:24:53;;;;;;;26.92;10.60;;;;;;;;;;5071484;28;20081;-82
2024/01/28 01:27:19;;;;;;;26.25;10.90;;;;;;;;;;5071381;28;20482;-81
2024/01/28 01:29:45;;;;;;;23.10;9.00;;;;;;;;;;5071420;28;20348;-83
2024/01/28 01:32:11;;;;;;;23.65;10.10;;;;;;;;;;5071235;28;20140;-83
2024/01/28 01:34:37;;;;;;;23.58;10.35;;;;;;;;;;5071208;28;20021;-84
2024/01/28 01:37:03;;;;;;;21.77;9.90;;;;;;;;;;5071399;28;20020;-83
2024/01/28 01:39:30;;;;;;;23.92;10.57;;;;;;;;;;5071028;28;20086;-83
2024/01/28 01:41:56;;;;;;;25.25;10.25;;;;;;;;;;5071496;28;20052;-84
2024/01/28 01:44:22;;;;;;;19.35;10.32;;;;;;;;;;5071664;28;20028;-83
2024/01/28 01:46:49;;;;;;;21.80;8.88;;;;;;;;;;5071191;28;20078;-80
2024/01/28 01:49:15;;;;;;;22.40;11.10;;;;;;;;;;5071140;28;20388;-84
2024/01/28 01:51:41;;;;;;;23.80;10.30;;;;;;;;;;5073474;28;20476;-84
2024/01/28 01:54:07;;;;;;;23.92;10.23;;;;;;;;;;5075644;28;20025;-83
2024/01/28 01:56:34;;;;;;;23.48;9.32;;;;;;;;;;5076877;28;20404;-83
2024/01/28 01:59:01;;;;;;;23.83;9.63;;;;;;;;;;5075473;28;20021;-83
2024/01/28 02:01:27;;;;;;;19.73;9.32;;;;;;;;;;5075363;28;20029;-84
2024/01/28 02:03:55;;;;;;;20.70;8.98;;;;;;;;;;5075029;28;20044;-85
2024/01/28 02:06:21;;;;;;;18.10;8.43;;;;;;;;;;5074992;28;20472;-84
2024/01/28 02:08:47;;;;;;;23.63;9.85;;;;;;;;;;5081556;28;20031;-83
2024/01/28 02:11:16;;;;;;;24.98;9.23;;;;;;;;;;5099483;28;20028;-86
2024/01/28 02:13:42;;;;;;;20.45;8.00;;;;;;;;;;5100800;28;20024;-84
2024/01/28 02:16:08;;;;;;;28.60;11.23;;;;;;;;;;5087273;28;20025;-83
2024/01/28 02:18:34;;;;;;;20.73;9.27;;;;;;;;;;5082084;28;20070;-83
2024/01/28 02:21:00;;;;;;;21.80;9.77;;;;;;;;;;5076209;28;20028;-83
2024/01/28 02:23:26;;;;;;;25.48;11.55;;;;;;;;;;5074597;28;20028;-83
2024/01/28 02:25:52;;;;;;;27.05;8.98;;;;;;;;;;5074760;28;20024;-83
2024/01/28 02:28:20;;;;;;;27.90;10.52;;;;;;;;;;5075931;28;20121;-85
2024/01/28 02:30:46;;;;;;;22.85;9.82;;;;;;;;;;5074670;28;20082;-85
2024/01/28 02:33:12;;;;;;;22.23;8.82;;;;;;;;;;5074588;28;20025;-85
2024/01/28 02:35:38;;;;;;;27.67;8.80;;;;;;;;;;5074650;28;20021;-84
2024/01/28 02:38:04;;;;;;;25.73;8.68;;;;;;;;;;5074478;28;20025;-83
2024/01/28 02:40:31;;;;;;;23.85;8.48;;;;;;;;;;5074219;28;20052;-84
2024/01/28 02:42:57;;;;;;;26.17;10.15;;;;;;;;;;5074241;28;20031;-82
2024/01/28 02:45:23;;;;;;;21.25;8.70;;;;;;;;;;5074064;28;20549;-82
2024/01/28 02:47:49;;;;;;;23.00;10.30;;;;;;;;;;5074167;28;20025;-82
2024/01/28 02:50:15;;;;;;;17.20;8.05;;;;;;;;;;5075134;28;20628;-81
2024/01/28 02:52:41;;;;;;;22.80;8.55;;;;;;;;;;5074608;28;20121;-80
2024/01/28 02:55:08;;;;;;;22.38;8.25;;;;;;;;;;5074729;28;20032;-80
2024/01/28 02:57:34;;;;;;;24.90;8.27;;;;;;;;;;5074394;28;20394;-80
2024/01/28 03:00:02;;;;;;;14.88;7.30;;;;;;;;;;5075167;28;20023;-79
2024/01/28 03:02:28;;;;;;;19.45;7.22;;;;;;;;;;5073153;28;20036;-80
2024/01/28 03:04:54;;;;;;;20.10;8.73;;;;;;;;;;5074124;28;20066;-82
2024/01/28 03:07:20;;;;;;;19.42;8.20;;;;;;;;;;5073809;28;20029;-83
2024/01/28 03:09:46;;;;;;;18.08;9.77;;;;;;;;;;5074056;28;20028;-82
2024/01/28 03:12:12;;;;;;;19.83;7.43;;;;;;;;;;5073904;28;20032;-82
2024/01/28 03:14:38;;;;;;;21.58;10.23;;;;;;;;;;5073713;28;20024;-85
2024/01/28 03:17:04;;;;;;;13.77;7.07;;;;;;;;;;5074007;28;20024;-85
2024/01/28 03:19:30;;;;;;;24.30;9.05;;;;;;;;;;5073753;28;20078;-84
2024/01/28 03:21:57;;;;;;;22.92;8.13;;;;;;;;;;5073821;28;20361;-80
2024/01/28 03:24:23;;;;;;;21.30;7.55;;;;;;;;;;5073534;28;20035;-80
2024/01/28 03:26:49;;;;;;;23.45;9.25;;;;;;;;;;5073541;28;20060;-79
2024/01/28 03:29:15;;;;;;;24.42;7.93;;;;;;;;;;5073278;28;20016;-84
2024/01/28 03:31:41;;;;;;;17.65;6.68;;;;;;;;;;5073373;28;20403;-84
2024/01/28 03:34:08;;;;;;;20.00;8.88;;;;;;;;;;5073531;28;20035;-82
2024/01/28 03:36:34;;;;;;;24.33;8.85;;;;;;;;;;5073068;28;20051;-82
2024/01/28 03:39:00;;;;;;;20.15;8.60;;;;;;;;;;5074426;28;20055;-83
2024/01/28 03:41:26;;;;;;;19.38;7.75;;;;;;;;;;5074448;28;20024;-82
2024/01/28 03:43:52;;;;;;;23.98;9.65;;;;;;;;;;5073081;28;20021;-84
2024/01/28 03:46:18;;;;;;;25.33;9.30;;;;;;;;;;5074088;28;20027;-83
2024/01/28 03:48:44;;;;;;;19.02;8.25;;;;;;;;;;5072854;28;20036;-83
2024/01/28 03:51:10;;;;;;;23.05;7.78;;;;;;;;;;5073350;28;20036;-86
2024/01/28 03:53:36;;;;;;;21.35;8.48;;;;;;;;;;5073111;28;20070;-86
2024/01/28 03:56:02;;;;;;;24.38;10.07;;;;;;;;;;5073192;28;20027;-86
2024/01/28 03:58:28;;;;;;;24.67;8.80;;;;;;;;;;5072917;28;20031;-86
2024/01/28 04:00:54;;;;;;;25.27;8.68;;;;;;;;;;5072951;28;20024;-86
2024/01/28 04:03:20;;;;;;;17.23;6.72;;;;;;;;;;5072496;28;20098;-88
2024/01/28 04:05:46;;;;;;;15.68;6.10;;;;;;;;;;5073240;28;20419;-87
2024/01/28 04:08:13;;;;;;;17.33;7.55;;;;;;;;;;5073153;28;20028;-88
2024/01/28 04:10:39;;;;;;;18.77;7.63;;;;;;;;;;5073288;28;20039;-87
2024/01/28 04:13:05;;;;;;;18.25;7.40;;;;;;;;;;5073717;28;20024;-87
2024/01/28 04:15:31;;;;;;;18.13;6.30;;;;;;;;;;5072757;28;20029;-85
2024/01/28 04:17:57;;;;;;;14.10;6.68;;;;;;;;;;5073241;28;20468;-85
2024/01/28 04:20:23;;;;;;;17.63;7.72;;;;;;;;;;5073029;28;20025;-84
2024/01/28 04:22:49;;;;;;;23.40;8.50;;;;;;;;;;5074007;28;20024;-84
2024/01/28 04:25:18;;;;;;;20.90;8.45;;;;;;;;;;5076551;28;20036;-85
2024/01/28 04:27:44;;;;;;;19.23;7.93;;;;;;;;;;5079481;28;20111;-84
2024/01/28 04:30:10;;;;;;;17.83;7.45;;;;;;;;;;5086329;28;20035;-86
2024/01/28 04:32:36;;;;;;;15.68;7.75;;;;;;;;;;5094939;28;20088;-87
2024/01/28 04:35:02;;;;;;;17.50;7.03;;;;;;;;;;5097135;28;20031;-78
2024/01/28 04:37:30;;;;;;;18.90;7.15;;;;;;;;;;5087695;28;20021;-83
2024/01/28 04:39:56;;;;;;;17.80;7.78;;;;;;;;;;5083921;28;20092;-83
2024/01/28 04:42:22;;;;;;;22.13;9.65;;;;;;;;;;5072165;28;20075;-83
2024/01/28 04:44:52;;;;;;;17.85;7.32;;;;;;;;;;5072216;28;20020;-83
2024/01/28 04:47:18;;;;;;;24.83;7.97;;;;;;;;;;5073055;28;20017;-82
2024/01/28 04:49:44;;;;;;;17.33;6.05;;;;;;;;;;5074834;28;20025;-85
2024/01/28 04:52:10;;;;;;;15.88;7.85;;;;;;;;;;5085236;28;20126;-83
2024/01/28 04:54:36;;;;;;;17.58;7.63;;;;;;;;;;5077964;28;20035;-87
2024/01/28 04:57:02;;;;;;;22.35;9.43;;;;;;;;;;5074931;28;20495;-89
2024/01/28 04:59:29;;;;;;;22.00;9.18;;;;;;;;;;5072651;28;20031;-90
2024/01/28 05:01:55;;;;;;;14.80;6.95;;;;;;;;;;5072326;28;20078;-86
2024/01/28 05:04:21;;;;;;;21.15;7.05;;;;;;;;;;5071926;28;20041;-85
2024/01/28 05:06:47;;;;;;;14.88;6.85;;;;;;;;;;5072642;28;20478;-88
2024/01/28 05:09:15;;;;;;;18.48;8.20;;;;;;;;;;5072469;28;20031;-85
2024/01/28 05:11:41;;;;;;;16.30;8.20;;;;;;;;;;5071455;28;20032;-84
2024/01/28 05:14:07;;;;;;;24.83;9.43;;;;;;;;;;5071983;28;20552;-84
2024/01/28 05:16:33;;;;;;;20.15;8.55;;;;;;;;;;5071665;28;20078;-83
2024/01/28 05:19:01;;;;;;;16.42;6.88;;;;;;;;;;5071408;28;20016;-86
2024/01/28 05:21:27;;;;;;;21.00;8.48;;;;;;;;;;5071569;28;20381;-85
2024/01/28 05:23:54;;;;;;;16.45;6.90;;;;;;;;;;5071622;28;20028;-82
2024/01/28 05:26:20;;;;;;;13.65;6.50;;;;;;;;;;5071552;28;20024;-86
2024/01/28 05:28:46;;;;;;;18.70;8.00;;;;;;;;;;5071255;28;20107;-84
2024/01/28 05:31:12;;;;;;;17.55;7.50;;;;;;;;;;5071292;28;20043;-83
2024/01/28 05:33:38;;;;;;;21.75;7.38;;;;;;;;;;5071321;28;20025;-83
2024/01/28 05:36:17;;;;;;;21.70;8.32;;;;;;;;;;5071484;28;20024;-81
2024/01/28 05:38:44;;;;;;;21.80;7.75;;;;;;;;;;5071226;28;20020;-83
2024/01/28 05:41:10;;;;;;;17.67;7.20;;;;;;;;;;5071327;28;20028;-83
2024/01/28 05:43:37;;;;;;;17.40;7.32;;;;;;;;;;5071142;28;20052;-83
2024/01/28 05:46:04;;;;;;;25.38;9.55;;;;;;;;;;5072315;28;20444;-83
2024/01/28 05:48:31;;;;;;;16.33;7.68;;;;;;;;;;5071157;28;20029;-83
2024/01/28 05:50:57;;;;;;;18.50;7.97;;;;;;;;;;5071020;28;20033;-83
2024/01/28 05:53:24;;;;;;;21.33;9.38;;;;;;;;;;5070878;28;20483;-83
2024/01/28 05:55:51;;;;;;;14.75;7.18;;;;;;;;;;5071013;28;20028;-83
2024/01/28 05:58:17;;;;;;;18.63;6.75;;;;;;;;;;5070914;28;20021;-83
2024/01/28 06:00:44;;;;;;;18.58;7.95;;;;;;;;;;5070961;28;20017;-83
2024/01/28 06:03:10;;;;;;;17.10;7.15;;;;;;;;;;5070924;28;20044;-84
2024/01/28 06:05:36;;;;;;;18.65;6.93;;;;;;;;;;5070953;28;20044;-83
2024/01/28 06:08:02;;;;;;;20.27;6.50;;;;;;;;;;5071172;28;20083;-85
2024/01/28 06:10:28;;;;;;;18.45;6.60;;;;;;;;;;5070731;28;20043;-84
2024/01/28 06:12:54;;;;;;;10.68;5.13;;;;;;;;;;5071196;28;20025;-83
2024/01/28 06:15:20;;;;;;;17.77;5.80;;;;;;;;;;5071096;28;20028;-84
2024/01/28 06:17:46;;;;;;;14.48;7.32;;;;;;;;;;5071044;28;20024;-84
2024/01/28 06:20:12;;;;;;;16.15;6.80;;;;;;;;;;5072056;28;20456;-82
2024/01/28 06:22:38;;;;;;;16.55;7.05;;;;;;;;;;5070630;28;20452;-81
2024/01/28 06:25:07;;;;;;;17.88;7.50;;;;;;;;;;5072411;28;20099;-81
2024/01/28 06:27:33;;;;;;;20.50;7.55;;;;;;;;;;5070824;28;20025;-82
2024/01/28 06:29:59;;;;;;;17.50;7.45;;;;;;;;;;5071648;28;20111;-80
2024/01/28 06:32:25;;;;;;;14.85;6.35;;;;;;;;;;5070983;28;20036;-80
2024/01/28 06:34:52;;;;;;;11.98;6.38;;;;;;;;;;5070779;28;20024;-81
2024/01/28 06:37:18;;;;;;;14.32;5.47;;;;;;;;;;5072458;28;20082;-82
2024/01/28 06:39:50;;;;;;;13.10;5.35;;;;;;;;;;5075478;28;20025;-82
2024/01/28 06:42:16;;;;;;;20.02;7.93;;;;;;;;;;5075898;28;20062;-81
2024/01/28 06:44:42;;;;;;;18.65;7.30;;;;;;;;;;5077038;28;20511;-83
2024/01/28 06:47:08;;;;;;;16.88;6.57;;;;;;;;;;5078388;28;20345;-84
2024/01/28 06:49:34;;;;;;;15.38;6.68;;;;;;;;;;5079485;28;20032;-83
2024/01/28 06:52:01;;;;;;;21.73;6.95;;;;;;;;;;5093958;28;20032;-80
2024/01/28 06:54:27;;;;;;;14.45;6.07;;;;;;;;;;5098179;28;20091;-82
2024/01/28 06:56:53;;;;;;;18.17;6.25;;;;;;;;;;5098794;28;20081;-83
2024/01/28 06:59:19;;;;;;;12.63;6.57;;;;;;;;;;5087640;28;20029;-84
2024/01/28 07:01:45;;;;;;;14.48;5.47;;;;;;;;;;5079951;28;20028;-83
2024/01/28 07:04:12;;;;;;;17.95;6.63;;;;;;;;;;5073964;28;20055;-81
2024/01/28 07:06:38;;;;;;;18.45;6.43;;;;;;;;;;5073679;28;20020;-83
2024/01/28 07:09:04;;;;;;;15.48;6.47;;;;;;;;;;5073596;28;20032;-81
2024/01/28 07:11:30;;;;;;;20.60;6.13;;;;;;;;;;5073589;28;20028;-81
2024/01/28 07:13:56;;;;;;;14.73;6.03;;;;;;;;;;5074266;28;20118;-86
2024/01/28 07:16:22;;;;;;;17.70;5.22;;;;;;;;;;5074089;28;20048;-86
2024/01/28 07:18:49;;;;;;;16.98;6.07;;;;;;;;;;5073376;28;20452;-84
2024/01/28 07:21:16;;;;;;;18.25;7.22;;;;;;;;;;5073759;28;20027;-83
2024/01/28 07:23:42;;;;;;;18.55;7.32;;;;;;;;;;5073622;28;20024;-82
2024/01/28 07:26:09;;;;;;;19.40;8.20;;;;;;;;;;5073756;28;20035;-81
2024/01/28 07:28:35;;;;;;;21.70;6.72;;;;;;;;;;5074780;28;20025;-80
2024/01/28 07:31:01;;;;;;;26.55;7.47;;;;;;;;;;5073396;28;20529;-81
2024/01/28 07:33:27;;;;;;;18.02;7.40;;;;;;;;;;5073622;28;20483;-81
2024/01/28 07:35:53;;;;;;;14.68;5.75;;;;;;;;;;5073268;28;20021;-82
2024/01/28 07:38:19;;;;;;;15.15;5.82;;;;;;;;;;5073389;28;20024;-82
2024/01/28 07:40:45;;;;;;;15.23;5.60;;;;;;;;;;5073186;28;20054;-83
2024/01/28 07:43:11;;;;;;;16.80;6.63;;;;;;;;;;5073291;28;20137;-80
2024/01/28 07:45:37;;;;;;;16.70;7.65;;;;;;;;;;5072835;28;20472;-82
2024/01/28 07:48:03;;;;;;;22.02;8.32;;;;;;;;;;5072705;28;20032;-81
2024/01/28 07:50:29;;;;;;;11.05;5.80;;;;;;;;;;5072435;28;20028;-81
2024/01/28 07:52:56;;;;;;;17.73;6.80;;;;;;;;;;5073997;28;20050;-81
2024/01/28 07:55:22;;;;;;;12.63;5.32;;;;;;;;;;5072702;28;20077;-82
2024/01/28 07:57:48;;;;;;;15.23;7.22;;;;;;;;;;5072689;28;20047;-82
2024/01/28 08:00:14;;;;;;;18.52;7.35;;;;;;;;;;5072872;28;20052;-82
2024/01/28 08:02:40;;;;;;;18.13;7.63;;;;;;;;;;5072646;28;20385;-82
2024/01/28 08:05:07;;;;;;;19.65;6.53;;;;;;;;;;5072881;28;20341;-83
2024/01/28 08:07:33;;;;;;;17.70;5.57;;;;;;;;;;5072605;28;20422;-82
2024/01/28 08:09:59;;;;;;;14.90;5.90;;;;;;;;;;5072504;28;20029;-82
2024/01/28 08:12:24;;;;;;;13.10;4.93;;;;;;;;;;5072844;28;20033;-81
2024/01/28 08:14:51;;;;;;;12.98;5.72;;;;;;;;;;5072439;28;20025;-82
2024/01/28 08:17:18;;;;;;;16.02;5.95;;;;;;;;;;5072786;28;20044;-83
2024/01/28 08:19:44;;;;;;;8.32;4.30;;;;;;;;;;5073336;28;20020;-83
2024/01/28 08:22:10;;;;;;;8.02;3.10;;;;;;;;;;5073930;28;20032;-82
2024/01/28 08:24:37;;;;;;;8.75;3.47;;;;;;;;;;5073466;28;20028;-81
2024/01/28 08:27:03;;;;;;;10.80;4.28;;;;;;;;;;5073627;28;20487;-82
2024/01/28 08:29:29;;;;;;;15.13;5.10;;;;;;;;;;5074636;28;20021;-80
2024/01/28 08:31:57;;;;;;;16.23;5.45;;;;;;;;;;5073876;28;20640;-81
2024/01/28 08:34:23;;;;;;;8.23;3.42;;;;;;;;;;5075129;28;20062;-80
2024/01/28 08:36:50;;;;;;;12.65;4.60;;;;;;;;;;5074293;28;20112;-83
2024/01/28 08:39:16;;;;;;;11.68;3.42;;;;;;;;;;5074043;28;20021;-82
2024/01/28 08:41:42;;;;;;;6.95;2.50;;;;;;;;;;5074139;28;20143;-82
2024/01/28 08:44:09;;;;;;;7.15;2.42;;;;;;;;;;5074616;28;20028;-82
2024/01/28 08:46:39;;;;;;;11.85;4.72;;;;;;;;;;5073859;28;20094;-81
2024/01/28 08:49:05;;;;;;;10.25;4.25;;;;;;;;;;5074308;28;20523;-81
2024/01/28 08:51:31;;;;;;;11.02;3.83;;;;;;;;;;5074235;28;20572;-82
2024/01/28 08:53:57;;;;;;;15.00;5.82;;;;;;;;;;5074234;28;20611;-81
2024/01/28 08:56:23;;;;;;;13.77;4.30;;;;;;;;;;5075003;28;20029;-82
2024/01/28 08:58:49;;;;;;;11.25;4.05;;;;;;;;;;5073649;28;20645;-82
2024/01/28 09:01:15;;;;;;;12.45;4.65;;;;;;;;;;5073529;28;20050;-81
2024/01/28 09:03:42;;;;;;;12.45;4.43;;;;;;;;;;5073809;28;20063;-81
2024/01/28 09:06:08;;;;;;;10.90;4.20;;;;;;;;;;5074268;28;20090;-82
2024/01/28 09:08:34;;;;;;;12.73;4.70;;;;;;;;;;5074491;28;20044;-82
2024/01/28 09:11:00;;;;;;;9.85;4.15;;;;;;;;;;5075425;28;20032;-81
2024/01/28 09:13:27;;;;;;;10.40;4.20;;;;;;;;;;5083732;28;20005;-80
2024/01/28 09:15:53;;;;;;;14.23;4.75;;;;;;;;;;5093225;28;20025;-79
2024/01/28 09:18:19;;;;;;;12.95;5.13;;;;;;;;;;5092650;28;20008;-81
2024/01/28 09:20:45;;;;;;;10.20;3.40;;;;;;;;;;5084352;28;20075;-82
2024/01/28 09:23:11;;;;;;;13.77;4.18;;;;;;;;;;5073467;28;20017;-83
2024/01/28 09:25:37;;;;;;;15.32;4.43;;;;;;;;;;5071302;28;20025;-82
2024/01/28 09:28:03;;;;;;;9.82;3.22;;;;;;;;;;5071398;28;20028;-82
2024/01/28 09:30:30;;;;;;;9.82;3.30;;;;;;;;;;5071360;28;20024;-82
2024/01/28 09:32:56;;;;;;;14.35;4.13;;;;;;;;;;5071098;28;20451;-81
2024/01/28 09:35:22;;;;;;;11.55;4.28;;;;;;;;;;5071011;28;20464;-81
2024/01/28 09:37:48;;;;;;;13.43;3.92;;;;;;;;;;5070748;28;20017;-82
2024/01/28 09:40:15;;;;;;;8.13;3.22;;;;;;;;;;5070793;28;20526;-82
2024/01/28 09:42:41;;;;;;;9.80;3.35;;;;;;;;;;5070472;28;20102;-82
2024/01/28 09:45:09;;;;;;;10.68;4.18;;;;;;;;;;5071905;28;20025;-82
2024/01/28 09:47:36;;;;;;;11.18;4.25;;;;;;;;;;5070487;28;20021;-82
2024/01/28 09:50:04;;;;;;;12.07;3.92;;;;;;;;;;5070389;28;20503;-82
2024/01/28 09:52:31;;;;;;;11.18;3.60;;;;;;;;;;5071558;28;20111;-82
2024/01/28 09:54:57;;;;;;;10.40;3.63;;;;;;;;;;5070627;28;20032;-82
2024/01/28 09:57:23;;;;;;;8.93;3.95;;;;;;;;;;5070843;28;20411;-82
2024/01/28 09:59:50;;;;;;;10.93;3.20;;;;;;;;;;5070798;28;20025;-82
2024/01/28 10:02:17;;;;;;;10.13;3.00;;;;;;;;;;5070728;28;20032;-82
2024/01/28 10:04:45;;;;;;;9.45;3.25;;;;;;;;;;5070553;28;20136;-83
2024/01/28 10:07:12;;;;;;;11.05;4.47;;;;;;;;;;5071101;28;20161;-83
2024/01/28 10:09:38;;;;;;;13.93;4.10;;;;;;;;;;5070961;28;20522;-81
2024/01/28 10:12:05;;;;;;;8.38;3.05;;;;;;;;;;5073041;28;20028;-82
2024/01/28 10:14:31;;;;;;;10.48;3.10;;;;;;;;;;5074761;28;20063;-82
2024/01/28 10:16:57;;;;;;;8.75;2.63;;;;;;;;;;5074699;28;20086;-82
2024/01/28 10:19:23;;;;;;;7.80;2.63;;;;;;;;;;5075400;28;20020;-82
2024/01/28 10:21:49;;;;;;;9.02;3.17;;;;;;;;;;5075100;28;20025;-83
2024/01/28 10:24:16;;;;;;;11.20;4.57;;;;;;;;;;5076170;28;20021;-82
2024/01/28 10:26:43;;;;;;;5.15;2.20;;;;;;;;;;5075383;28;20119;-83
2024/01/28 10:29:09;;;;;;;10.70;3.03;;;;;;;;;;5074578;28;20115;-84
2024/01/28 10:31:40;;;;;;;10.48;3.08;;;;;;;;;;5074931;28;20500;-83
2024/01/28 10:34:08;;;;;;;11.32;4.30;;;;;;;;;;5077215;28;20460;-84
2024/01/28 10:36:36;;;;;;;11.35;4.22;;;;;;;;;;5076929;28;20043;-83
2024/01/28 10:39:03;;;;;;;8.10;4.00;;;;;;;;;;5074222;28;20033;-83
2024/01/28 10:41:30;;;;;;;14.32;3.97;;;;;;;;;;5076270;28;20031;-83
2024/01/28 10:43:57;;;;;;;8.38;3.78;;;;;;;;;;5074521;28;20016;-83
2024/01/28 10:46:28;;;;;;;8.50;3.13;;;;;;;;;;5074723;28;20123;-84
2024/01/28 10:48:57;;;;;;;5.88;2.40;;;;;;;;;;5074204;28;20063;-83
2024/01/28 10:51:23;;;;;;;9.15;2.83;;;;;;;;;;5074266;28;20028;-84
2024/01/28 10:53:51;;;;;;;10.00;3.53;;;;;;;;;;5073985;28;20105;-83
2024/01/28 10:56:18;;;;;;;10.55;2.47;;;;;;;;;;5074310;28;20027;-83
2024/01/28 10:58:44;;;;;;;10.52;3.20;;;;;;;;;;5073890;28;20021;-83
2024/01/28 11:01:11;;;;;;;9.13;3.78;;;;;;;;;;5074666;28;20066;-83
2024/01/28 11:03:38;;;;;;;10.02;3.55;;;;;;;;;;5074818;28;20190;-83
2024/01/28 11:06:04;;;;;;;8.73;2.90;;;;;;;;;;5074196;28;20020;-84
2024/01/28 11:08:30;;;;;;;11.93;3.63;;;;;;;;;;5074041;28;20123;-83
2024/01/28 11:10:56;;;;;;;6.20;2.45;;;;;;;;;;5073280;28;20140;-83
2024/01/28 11:13:23;;;;;;;8.13;2.38;;;;;;;;;;5073470;28;20460;-83
2024/01/28 11:15:49;;;;;;;7.65;2.78;;;;;;;;;;5073481;28;20479;-84
2024/01/28 11:18:16;;;;;;;10.68;2.92;;;;;;;;;;5074105;28;20021;-83
2024/01/28 11:20:42;;;;;;;11.68;3.60;;;;;;;;;;5073749;28;20131;-81
2024/01/28 11:23:17;;;;;;;9.27;3.03;;;;;;;;;;5073417;28;20055;-82
2024/01/28 11:25:44;;;;;;;8.95;3.65;;;;;;;;;;5073756;28;20024;-81
2024/01/28 11:28:13;;;;;;;8.35;3.25;;;;;;;;;;5073695;28;20123;-80
2024/01/28 11:30:40;;;;;;;12.45;3.58;;;;;;;;;;5074625;28;20017;-82
2024/01/28 11:33:16;;;;;;;8.93;3.50;;;;;;;;;;5075867;28;20031;-79
2024/01/28 11:35:46;;;;;;;7.95;2.88;;;;;;;;;;5086179;28;20028;-80
2024/01/28 11:38:12;;;;;;;;;;;;;;;;;;5098226;28;20048;-83
2024/01/28 11:40:39;;;;;;;8.00;3.65;;;;;;;;;;5094886;28;19909;-84
2024/01/28 11:43:07;;;;;;;8.90;3.58;;;;;;;;;;5082751;28;20113;-83
2024/01/28 11:45:35;;;;;;;9.55;2.78;;;;;;;;;;5074983;28;20024;-84
2024/01/28 11:48:11;;;;;;;11.52;3.78;;;;;;;;;;5074156;28;20017;-85
2024/01/28 11:50:43;;;;;;;7.65;3.78;;;;;;;;;;5073412;28;20103;-84
2024/01/28 11:53:09;;;;;;;9.90;3.30;;;;;;;;;;5072941;28;20111;-85
2024/01/28 11:55:35;;;;;;;11.88;3.47;;;;;;;;;;5073011;28;20067;-85
2024/01/28 11:58:01;;;;;;;8.88;3.03;;;;;;;;;;5072792;28;20029;-85
2024/01/28 12:00:28;;;;;;;6.03;2.85;;;;;;;;;;5073070;28;20548;-85
2024/01/28 12:02:54;;;;;;;8.57;3.20;;;;;;;;;;5075544;28;20208;-84
2024/01/28 12:05:21;;;;;;;9.77;3.92;;;;;;;;;;5076348;28;20029;-84
2024/01/28 12:07:47;;;;;;;8.25;3.40;;;;;;;;;;5077032;28;20021;-84
2024/01/28 12:10:14;;;;;;;8.32;3.45;;;;;;;;;;5074486;28;20136;-84
2024/01/28 12:12:40;;;;;;;8.13;2.38;;;;;;;;;;5073173;28;20025;-84
2024/01/28 12:15:07;;;;;;;7.32;2.72;;;;;;;;;;5072252;28;20548;-83
2024/01/28 12:17:40;;;;;;;7.82;3.42;;;;;;;;;;5072752;28;20032;-84
2024/01/28 12:20:07;;;;;;;7.53;3.38;;;;;;;;;;5072340;28;20507;-85
2024/01/28 12:22:37;;;;;;;9.48;2.78;;;;;;;;;;5073075;28;20494;-84
2024/01/28 12:25:13;;;;;;;13.10;4.32;;;;;;;;;;5072399;28;20025;-84
2024/01/28 12:27:40;;;;;;;11.52;3.67;;;;;;;;;;5072651;28;20024;-85
2024/01/28 12:30:07;;;;;;;6.82;2.92;;;;;;;;;;5072499;28;20031;-84
2024/01/28 12:32:33;;;;;;;8.57;2.50;;;;;;;;;;5073349;28;20071;-84
2024/01/28 12:35:06;;;;;;;6.70;2.65;;;;;;;;;;5071654;28;20082;-84
2024/01/28 12:37:32;;;;;;;7.20;3.20;;;;;;;;;;5072430;28;20055;-84
2024/01/28 12:39:59;;;;;;;7.38;3.00;;;;;;;;;;5072013;28;20371;-84
2024/01/28 12:42:25;;;;;;;8.23;3.30;;;;;;;;;;5075223;28;20099;-86
2024/01/28 12:44:51;;;;;;;9.00;2.75;;;;;;;;;;5073397;28;20391;-85
2024/01/28 12:47:17;;;;;;;9.18;3.47;;;;;;;;;;5073586;28;20055;-86
2024/01/28 12:49:43;;;;;;;7.25;2.40;;;;;;;;;;5073938;28;20478;-86
2024/01/28 12:52:11;;;;;;;6.25;2.55;;;;;;;;;;5072249;28;20195;-86
2024/01/28 12:54:37;;;;;;;11.60;4.43;;;;;;;;;;5073425;28;20079;-88
2024/01/28 12:57:03;;;;;;;7.53;2.88;;;;;;;;;;5073522;28;20475;-86
2024/01/28 12:59:29;;;;;;;8.27;3.40;;;;;;;;;;5073292;28;20026;-85
2024/01/28 13:01:55;;;;;;;7.95;3.25;;;;;;;;;;5073235;28;20029;-85
2024/01/28 13:04:22;;;;;;;7.55;2.83;;;;;;;;;;5073288;28;20182;-86
2024/01/28 13:06:48;;;;;;;11.07;4.18;;;;;;;;;;5072835;28;20028;-83
2024/01/28 13:09:14;;;;;;;13.32;3.67;;;;;;;;;;5072382;28;20028;-86
2024/01/28 13:11:41;;;;;;;9.20;2.83;;;;;;;;;;5072288;28;20471;-86
2024/01/28 13:14:07;;;;;;;7.13;2.28;;;;;;;;;;5072286;28;20379;-86
2024/01/28 13:16:33;;;;;;;7.57;2.47;;;;;;;;;;5073586;28;20028;-87
2024/01/28 13:18:59;;;;;;;9.13;2.67;;;;;;;;;;5073351;28;20032;-87
2024/01/28 13:21:25;;;;;;;5.85;2.67;;;;;;;;;;5072955;28;20040;-85
2024/01/28 13:23:51;;;;;;;8.20;3.38;;;;;;;;;;5073178;28;20111;-85
2024/01/28 13:26:18;;;;;;;8.82;3.58;;;;;;;;;;5074474;28;20078;-87
2024/01/28 13:28:45;;;;;;;8.25;3.40;;;;;;;;;;5072587;28;20055;-86
2024/01/28 13:31:11;;;;;;;6.43;3.00;;;;;;;;;;5072557;28;20043;-86
2024/01/28 13:33:37;;;;;;;8.68;2.63;;;;;;;;;;5073114;28;20058;-85
2024/01/28 13:36:03;;;;;;;7.63;2.97;;;;;;;;;;5072859;28;20129;-87
2024/01/28 13:38:29;;;;;;;8.07;3.45;;;;;;;;;;5073441;28;20589;-87
2024/01/28 13:40:55;;;;;;;9.55;2.80;;;;;;;;;;5072426;28;20094;-87
2024/01/28 13:43:21;;;;;;;7.05;2.30;;;;;;;;;;5073547;28;20028;-87
2024/01/28 13:45:48;;;;;;;5.15;2.08;;;;;;;;;;5073148;28;20025;-86
2024/01/28 13:48:14;;;;;;;6.03;2.45;;;;;;;;;;5074300;28;20035;-86
2024/01/28 13:50:40;;;;;;;6.00;2.53;;;;;;;;;;5080411;28;20074;-86
2024/01/28 13:53:09;;;;;;;9.07;3.47;;;;;;;;;;5095831;28;20023;-87
2024/01/28 13:55:35;;;;;;;7.97;2.72;;;;;;;;;;5096650;28;20020;-86
2024/01/28 13:58:01;;;;;;;7.07;2.85;;;;;;;;;;5095319;28;20049;-87
2024/01/28 14:00:28;;;;;;;10.82;3.25;;;;;;;;;;5087018;28;20505;-87
2024/01/28 14:02:54;;;;;;;6.28;2.92;;;;;;;;;;5075314;28;20052;-85
2024/01/28 14:05:20;;;;;;;5.55;2.53;;;;;;;;;;5072280;28;20117;-87
2024/01/28 14:07:46;;;;;;;7.68;3.00;;;;;;;;;;5071837;28;20043;-84
2024/01/28 14:10:12;;;;;;;7.78;3.53;;;;;;;;;;5073089;28;20024;-86
2024/01/28 14:12:39;;;;;;;8.43;3.25;;;;;;;;;;5071461;28;20029;-86
2024/01/28 14:15:06;;;;;;;7.60;3.35;;;;;;;;;;5071156;28;20067;-87
2024/01/28 14:17:35;;;;;;;7.97;3.03;;;;;;;;;;5070928;28;20020;-86
2024/01/28 14:20:02;;;;;;;7.45;2.95;;;;;;;;;;5071148;28;20023;-87
2024/01/28 14:22:28;;;;;;;10.00;3.67;;;;;;;;;;5071703;28;20090;-86
2024/01/28 14:24:55;;;;;;;7.90;3.13;;;;;;;;;;5071027;28;20036;-87
2024/01/28 14:27:21;;;;;;;5.13;2.30;;;;;;;;;;5071204;28;20032;-88